Time;durP1;ratioP1;P1;durP2;ratioP2;P2;SDS_P1;SDS_P2;PMS_P1;PMS_P2;Temp;Humidity;BMP_temperature;BMP_pressure;BME280_temperature;BME280_humidity;BME280_pressure;Samples;Min_cycle;Max_cycle;Signal;HPM_P1;HPM_P2
2021/03/19 00:00:44;;;;;;;8.68;3.30;;;3.10;99.90;;;;;;5053124;28;20049;-59
2021/03/19 00:03:11;;;;;;;7.00;2.30;;;3.10;99.90;;;;;;5070012;28;20036;-58
2021/03/19 00:05:38;;;;;;;9.73;2.75;;;3.10;99.90;;;;;;5071514;28;20044;-57
2021/03/19 00:08:05;;;;;;;7.72;2.40;;;3.10;99.90;;;;;;5071859;28;20399;-59
2021/03/19 00:10:33;;;;;;;6.22;2.38;;;3.00;99.90;;;;;;5057336;28;20040;-57
2021/03/19 00:13:04;;;;;;;7.25;2.13;;;2.80;99.90;;;;;;5043788;28;20140;-58
2021/03/19 00:15:31;;;;;;;7.85;2.33;;;2.80;99.90;;;;;;5069155;28;20055;-59
2021/03/19 00:18:00;;;;;;;4.22;1.60;;;2.70;99.90;;;;;;5054794;28;20466;-58
2021/03/19 00:20:36;;;;;;;5.60;1.73;;;2.80;99.90;;;;;;5068893;28;20115;-58
2021/03/19 00:23:03;;;;;;;6.60;1.85;;;2.90;99.90;;;;;;5072698;28;20125;-58
2021/03/19 00:25:30;;;;;;;4.57;1.77;;;2.90;99.90;;;;;;5059073;28;20048;-58
2021/03/19 00:27:56;;;;;;;5.88;2.28;;;3.00;99.90;;;;;;5071919;28;20036;-58
2021/03/19 00:30:24;;;;;;;6.00;2.08;;;3.00;99.90;;;;;;5051250;28;20051;-58
2021/03/19 00:32:51;;;;;;;6.75;2.28;;;3.00;99.90;;;;;;5052712;28;20032;-59
2021/03/19 00:35:18;;;;;;;5.72;1.95;;;2.90;99.90;;;;;;5070698;28;20068;-58
2021/03/19 00:37:45;;;;;;;4.93;1.67;;;3.00;99.90;;;;;;5070638;28;20056;-58
2021/03/19 00:40:13;;;;;;;5.50;1.85;;;3.10;99.90;;;;;;5068608;28;20518;-58
2021/03/19 00:42:41;;;;;;;9.95;3.38;;;3.00;99.90;;;;;;5065887;28;20048;-58
2021/03/19 00:45:12;;;;;;;7.97;3.50;;;3.00;99.90;;;;;;5070581;28;20106;-57
2021/03/19 00:47:38;;;;;;;10.45;3.65;;;3.00;99.90;;;;;;5049834;28;20411;-59
2021/03/19 00:50:09;;;;;;;6.93;2.92;;;3.00;99.90;;;;;;5068103;28;20045;-59
2021/03/19 00:52:37;;;;;;;6.32;2.50;;;3.10;99.90;;;;;;5069641;28;20059;-61
2021/03/19 00:55:09;;;;;;;4.72;2.15;;;3.10;99.90;;;;;;5072619;28;20526;-59
2021/03/19 00:57:36;;;;;;;5.40;1.80;;;3.10;99.90;;;;;;5071865;28;20044;-60
2021/03/19 01:00:08;;;;;;;6.22;2.35;;;3.10;99.90;;;;;;5065225;28;20044;-58
2021/03/19 01:02:35;;;;;;;7.03;2.40;;;3.10;99.90;;;;;;5042464;28;20052;-58
2021/03/19 01:05:06;;;;;;;7.20;2.45;;;3.20;99.90;;;;;;5070553;28;20760;-58
2021/03/19 01:07:32;;;;;;;7.50;3.03;;;3.00;99.90;;;;;;5069306;28;20029;-60
2021/03/19 01:09:59;;;;;;;6.88;2.53;;;2.90;99.90;;;;;;5071505;28;20047;-58
2021/03/19 01:12:25;;;;;;;6.45;2.28;;;3.00;99.90;;;;;;5072428;28;20067;-58
2021/03/19 01:14:52;;;;;;;4.47;2.22;;;3.00;99.90;;;;;;5055721;28;20055;-60
2021/03/19 01:17:18;;;;;;;6.80;2.78;;;2.90;99.90;;;;;;5047343;28;20047;-58
2021/03/19 01:19:46;;;;;;;6.35;2.00;;;3.00;99.90;;;;;;5067810;28;20048;-59
2021/03/19 01:22:13;;;;;;;7.63;2.08;;;3.00;99.90;;;;;;5054220;28;20083;-59
2021/03/19 01:24:39;;;;;;;7.22;2.55;;;3.00;99.90;;;;;;5076372;28;20093;-59
2021/03/19 01:27:06;;;;;;;7.10;2.85;;;3.00;99.90;;;;;;5070658;28;20024;-59
2021/03/19 01:29:33;;;;;;;7.05;2.42;;;3.00;99.90;;;;;;5069766;28;20037;-59
2021/03/19 01:31:59;;;;;;;7.65;2.28;;;2.90;99.90;;;;;;5071410;28;20044;-58
2021/03/19 01:34:26;;;;;;;7.22;2.75;;;2.90;99.90;;;;;;5031999;28;20041;-58
2021/03/19 01:36:53;;;;;;;6.18;2.58;;;2.90;99.90;;;;;;5066731;28;20032;-58
2021/03/19 01:39:19;;;;;;;7.28;2.53;;;2.90;99.90;;;;;;5069352;28;20783;-58
2021/03/19 01:41:48;;;;;;;8.32;3.08;;;2.90;99.90;;;;;;5071595;28;20119;-58
2021/03/19 01:44:29;;;;;;;8.02;2.50;;;2.90;99.90;;;;;;5070582;28;20487;-58
2021/03/19 01:47:33;;;;;;;9.18;2.92;;;2.90;99.90;;;;;;5066646;28;20048;-57
2021/03/19 01:50:37;;;;;;;7.40;2.30;;;2.90;99.90;;;;;;5046389;28;20145;-58
2021/03/19 01:53:41;;;;;;;6.50;2.58;;;2.90;99.90;;;;;;5072251;28;20051;-58
2021/03/19 01:56:45;;;;;;;7.07;2.92;;;2.90;99.90;;;;;;5066069;28;20055;-62
2021/03/19 01:59:49;;;;;;;6.63;2.95;;;2.80;99.90;;;;;;5068503;28;20052;-57
2021/03/19 02:02:53;;;;;;;4.72;1.77;;;2.70;99.90;;;;;;5074345;28;20468;-58
2021/03/19 02:05:58;;;;;;;7.88;2.67;;;2.80;99.90;;;;;;5062460;28;20036;-58
2021/03/19 02:09:02;;;;;;;7.30;2.20;;;2.80;99.90;;;;;;5069188;28;20032;-59
2021/03/19 02:12:06;;;;;;;5.88;2.00;;;2.80;99.90;;;;;;5049780;28;20048;-58
2021/03/19 02:15:10;;;;;;;6.28;2.42;;;2.70;99.90;;;;;;5067619;28;20063;-58
2021/03/19 02:18:14;;;;;;;4.53;1.48;;;2.60;99.90;;;;;;5063590;28;20051;-58
2021/03/19 02:21:18;;;;;;;7.43;2.80;;;2.50;99.90;;;;;;5072215;28;20032;-57
2021/03/19 02:24:23;;;;;;;7.78;2.30;;;2.50;99.90;;;;;;5055869;28;20055;-60
2021/03/19 02:27:27;;;;;;;7.18;2.15;;;2.60;99.90;;;;;;5065316;28;20650;-58
2021/03/19 02:30:32;;;;;;;4.75;1.85;;;2.50;99.90;;;;;;5062202;28;20086;-59
2021/03/19 02:32:59;;;;;;;6.07;1.63;;;2.40;99.90;;;;;;5052207;28;20553;-59
2021/03/19 02:35:26;;;;;;;7.82;2.30;;;2.40;99.90;;;;;;5071406;28;20123;-58
2021/03/19 02:37:53;;;;;;;5.55;2.13;;;2.40;99.90;;;;;;5047273;28;20044;-57
2021/03/19 02:40:23;;;;;;;5.15;2.05;;;2.50;99.90;;;;;;5051962;28;20053;-58
2021/03/19 02:42:51;;;;;;;6.00;2.08;;;2.50;99.90;;;;;;5066587;28;20051;-58
2021/03/19 02:45:21;;;;;;;6.72;2.40;;;2.60;99.90;;;;;;5065277;28;20040;-58
2021/03/19 02:47:48;;;;;;;7.57;2.75;;;2.70;99.90;;;;;;5068111;28;20033;-60
2021/03/19 02:50:15;;;;;;;5.25;2.22;;;2.70;99.90;;;;;;5055963;28;20044;-59
2021/03/19 02:52:43;;;;;;;7.93;2.40;;;2.70;99.90;;;;;;5068629;28;20060;-59
2021/03/19 02:55:15;;;;;;;8.63;2.72;;;2.80;99.90;;;;;;5067947;28;20403;-59
2021/03/19 02:57:42;;;;;;;8.30;2.43;;;2.80;99.90;;;;;;5066135;28;20052;-60
2021/03/19 03:00:14;;;;;;;7.00;3.42;;;2.80;99.90;;;;;;5066197;28;20293;-59
2021/03/19 03:02:41;;;;;;;6.13;2.67;;;2.80;99.90;;;;;;5043393;28;20040;-59
2021/03/19 03:05:09;;;;;;;5.07;2.00;;;2.90;99.90;;;;;;5051638;28;20051;-58
2021/03/19 03:07:35;;;;;;;8.25;2.80;;;2.90;99.90;;;;;;5049007;28;20514;-61
2021/03/19 03:10:05;;;;;;;6.13;2.33;;;2.90;99.90;;;;;;5069597;28;20040;-59
2021/03/19 03:12:32;;;;;;;6.82;2.28;;;2.90;99.90;;;;;;5049950;28;20111;-60
2021/03/19 03:14:58;;;;;;;8.80;2.42;;;2.90;99.90;;;;;;5037422;28;20052;-58
2021/03/19 03:17:25;;;;;;;5.32;2.33;;;2.90;99.90;;;;;;5067640;28;20499;-58
2021/03/19 03:19:52;;;;;;;7.30;2.67;;;2.90;99.90;;;;;;5061874;28;20810;-58
2021/03/19 03:22:38;;;;;;;9.93;2.75;;;2.80;99.90;;;;;;5071004;28;20052;-58
2021/03/19 03:25:06;;;;;;;5.72;2.42;;;2.80;99.90;;;;;;5053998;28;20063;-58
2021/03/19 03:27:32;;;;;;;7.10;2.75;;;2.70;99.90;;;;;;5073502;28;20045;-58
2021/03/19 03:29:59;;;;;;;8.68;2.92;;;2.70;99.90;;;;;;5057505;28;20498;-57
2021/03/19 03:32:26;;;;;;;9.73;2.85;;;2.60;99.90;;;;;;5049478;28;20044;-58
2021/03/19 03:34:53;;;;;;;7.47;3.28;;;2.60;99.90;;;;;;5072911;28;20139;-59
2021/03/19 03:37:20;;;;;;;6.30;2.65;;;2.60;99.90;;;;;;5060294;28;20060;-58
2021/03/19 03:39:47;;;;;;;8.95;3.50;;;2.50;99.90;;;;;;5063898;28;20029;-59
2021/03/19 03:42:13;;;;;;;6.03;2.75;;;2.40;99.90;;;;;;5053768;28;20044;-61
2021/03/19 03:44:40;;;;;;;6.45;3.25;;;2.40;99.90;;;;;;5071369;28;20048;-60
2021/03/19 03:47:06;;;;;;;11.00;3.60;;;2.50;99.90;;;;;;5079275;28;20039;-58
2021/03/19 03:49:33;;;;;;;8.73;3.03;;;2.50;99.90;;;;;;5082400;28;20164;-59
2021/03/19 03:52:00;;;;;;;8.52;3.67;;;2.50;99.90;;;;;;5071401;28;20079;-57
2021/03/19 03:54:28;;;;;;;10.88;3.22;;;2.50;99.90;;;;;;5069518;28;20060;-60
2021/03/19 03:56:55;;;;;;;10.73;3.55;;;2.50;99.90;;;;;;5055265;28;20052;-57
2021/03/19 03:59:21;;;;;;;8.90;3.70;;;2.50;99.90;;;;;;5072515;28;20041;-57
2021/03/19 04:01:49;;;;;;;6.90;3.33;;;2.60;99.90;;;;;;5064037;28;20041;-58
2021/03/19 04:04:16;;;;;;;9.18;3.72;;;2.50;99.90;;;;;;5058049;28;20094;-59
2021/03/19 04:06:43;;;;;;;10.85;3.22;;;2.50;99.90;;;;;;5055089;28;20033;-58
2021/03/19 04:09:09;;;;;;;8.90;3.78;;;2.50;99.90;;;;;;5068800;28;20056;-58
2021/03/19 04:11:36;;;;;;;8.63;3.88;;;2.50;99.90;;;;;;5070777;28;20466;-59
2021/03/19 04:14:03;;;;;;;9.13;4.00;;;2.50;99.90;;;;;;5055951;28;20064;-59
2021/03/19 04:16:30;;;;;;;10.15;3.63;;;2.40;99.90;;;;;;5074830;28;20501;-58
2021/03/19 04:18:57;;;;;;;8.95;4.13;;;2.40;99.90;;;;;;5054102;28;20060;-58
2021/03/19 04:21:23;;;;;;;8.43;3.35;;;2.40;99.90;;;;;;5073217;28;20044;-57
2021/03/19 04:23:50;;;;;;;10.85;4.65;;;2.40;99.90;;;;;;5051324;28;20045;-57
2021/03/19 04:26:33;;;;;;;11.73;4.20;;;2.40;99.90;;;;;;5048914;28;20851;-59
2021/03/19 04:29:00;;;;;;;10.00;3.90;;;2.40;99.90;;;;;;5069039;28;20040;-57
2021/03/19 04:31:27;;;;;;;8.98;3.70;;;2.40;99.90;;;;;;5055215;28;20155;-58
2021/03/19 04:33:54;;;;;;;7.90;3.67;;;2.40;99.90;;;;;;5072403;28;20052;-57
2021/03/19 04:36:40;;;;;;;11.27;3.92;;;2.40;99.90;;;;;;5071367;28;20059;-58
2021/03/19 04:39:10;;;;;;;9.55;3.25;;;2.40;99.90;;;;;;5067167;28;20048;-58
2021/03/19 04:41:37;;;;;;;13.13;4.10;;;2.40;99.90;;;;;;5068943;28;20491;-59
2021/03/19 04:44:06;;;;;;;9.60;3.55;;;2.40;99.90;;;;;;5042047;28;20140;-58
2021/03/19 04:46:33;;;;;;;12.00;4.20;;;2.50;99.90;;;;;;5067079;28;20037;-59
2021/03/19 04:48:59;;;;;;;11.13;4.45;;;2.50;99.90;;;;;;5043666;28;20075;-57
2021/03/19 04:51:26;;;;;;;14.45;4.55;;;2.50;99.90;;;;;;5057467;28;20116;-59
2021/03/19 04:53:53;;;;;;;9.45;4.65;;;2.50;99.90;;;;;;5041054;28;20047;-58
2021/03/19 04:56:20;;;;;;;16.20;5.53;;;2.50;99.90;;;;;;5067828;28;20037;-58
2021/03/19 04:58:48;;;;;;;11.75;4.65;;;2.50;99.90;;;;;;5070034;28;20382;-60
2021/03/19 05:01:14;;;;;;;13.95;4.50;;;2.60;99.90;;;;;;5070874;28;20043;-58
2021/03/19 05:03:42;;;;;;;13.80;4.47;;;2.50;99.90;;;;;;5068701;28;20032;-60
2021/03/19 05:06:09;;;;;;;11.23;4.35;;;2.60;99.90;;;;;;5051174;28;20126;-59
2021/03/19 05:08:35;;;;;;;9.35;4.15;;;2.60;99.90;;;;;;5064865;28;20037;-57
2021/03/19 05:11:03;;;;;;;10.98;4.05;;;2.60;99.90;;;;;;5071025;28;20044;-57
2021/03/19 05:13:29;;;;;;;11.38;4.95;;;2.70;99.90;;;;;;5070986;28;20466;-58
2021/03/19 05:15:57;;;;;;;13.05;4.38;;;2.70;99.90;;;;;;5045612;28;20045;-60
2021/03/19 05:18:23;;;;;;;15.68;4.47;;;2.70;99.90;;;;;;5070731;28;20048;-59
2021/03/19 05:20:51;;;;;;;15.30;4.82;;;2.70;99.90;;;;;;5071305;28;20068;-57
2021/03/19 05:23:19;;;;;;;16.95;5.55;;;2.70;99.90;;;;;;5070635;28;20371;-58
2021/03/19 05:25:46;;;;;;;18.13;6.78;;;2.70;99.90;;;;;;5068315;28;20098;-58
2021/03/19 05:28:12;;;;;;;16.38;6.72;;;2.70;99.90;;;;;;5071811;28;20040;-57
2021/03/19 05:30:39;;;;;;;11.07;5.28;;;2.60;99.90;;;;;;5052250;28;20032;-57
2021/03/19 05:33:06;;;;;;;13.68;5.25;;;2.60;99.90;;;;;;5069581;28;20055;-58
2021/03/19 05:35:34;;;;;;;13.02;5.13;;;2.60;99.90;;;;;;5051611;28;20052;-59
2021/03/19 05:38:01;;;;;;;14.35;5.68;;;2.70;99.90;;;;;;5052420;28;20063;-58
2021/03/19 05:40:46;;;;;;;13.98;5.00;;;2.70;99.90;;;;;;5052724;28;20054;-58
2021/03/19 05:43:22;;;;;;;12.32;4.97;;;2.80;99.90;;;;;;5064425;28;20051;-58
2021/03/19 05:46:13;;;;;;;15.70;5.78;;;2.80;99.90;;;;;;5068714;28;20049;-59
2021/03/19 05:48:50;;;;;;;16.52;6.75;;;2.80;99.90;;;;;;5059241;28;20045;-58
2021/03/19 05:51:39;;;;;;;16.20;5.72;;;2.80;99.90;;;;;;5068648;28;20154;-59
2021/03/19 05:54:12;;;;;;;13.90;5.35;;;2.80;99.90;;;;;;5045036;28;20086;-58
2021/03/19 05:56:40;;;;;;;10.00;4.28;;;2.90;99.90;;;;;;5061095;28;20571;-58
2021/03/19 05:59:07;;;;;;;36.25;13.50;;;2.90;99.90;;;;;;5045765;28;20471;-59
2021/03/19 06:01:36;;;;;;;24.73;10.35;;;2.90;99.90;;;;;;5069102;28;20045;-58
2021/03/19 06:04:04;;;;;;;13.88;5.93;;;2.90;99.90;;;;;;5069335;28;20041;-59
2021/03/19 06:06:48;;;;;;;29.45;12.23;;;2.90;99.90;;;;;;5048734;28;20041;-57
2021/03/19 06:09:42;;;;;;;41.47;17.42;;;2.90;99.90;;;;;;5068002;28;20518;-59
2021/03/19 06:12:15;;;;;;;61.53;25.85;;;2.80;99.90;;;;;;5064826;28;20057;-60
2021/03/19 06:14:49;;;;;;;35.92;19.80;;;2.90;99.90;;;;;;5046840;28;20044;-58
2021/03/19 06:17:30;;;;;;;54.95;22.98;;;2.90;99.90;;;;;;5068629;28;20636;-58
2021/03/19 06:20:00;;;;;;;42.03;15.98;;;2.80;99.90;;;;;;5070149;28;20036;-59
2021/03/19 06:22:37;;;;;;;31.20;15.00;;;2.70;99.90;;;;;;5061975;28;20049;-59
2021/03/19 06:25:16;;;;;;;21.77;11.02;;;2.80;99.90;;;;;;5063220;28;20032;-58
2021/03/19 06:27:52;;;;;;;25.75;11.13;;;2.80;99.90;;;;;;5068449;28;20036;-60
2021/03/19 06:30:36;;;;;;;16.90;8.35;;;2.90;99.90;;;;;;5068049;28;20039;-58
2021/03/19 06:33:05;;;;;;;20.85;8.52;;;2.90;99.90;;;;;;5049417;28;20103;-59
2021/03/19 06:35:36;;;;;;;15.05;6.57;;;2.80;99.90;;;;;;5063135;28;20047;-59
2021/03/19 06:38:26;;;;;;;12.40;4.85;;;2.80;99.90;;;;;;5062954;28;20044;-57
2021/03/19 06:40:54;;;;;;;15.65;6.20;;;2.80;99.90;;;;;;5075439;28;20630;-59
2021/03/19 06:43:26;;;;;;;15.30;6.18;;;2.60;99.90;;;;;;5064097;28;20048;-58
2021/03/19 06:46:15;;;;;;;16.35;7.72;;;2.60;99.90;;;;;;5050348;28;20048;-58
2021/03/19 06:48:46;;;;;;;14.07;6.28;;;2.60;99.90;;;;;;5065628;28;20044;-60
2021/03/19 06:51:44;;;;;;;15.45;6.15;;;2.60;99.90;;;;;;5051339;28;20049;-58
2021/03/19 06:54:21;;;;;;;16.25;6.50;;;2.70;99.90;;;;;;5042330;28;20674;-58
2021/03/19 06:57:05;;;;;;;15.30;6.10;;;2.60;99.90;;;;;;5053799;28;20040;-59
2021/03/19 06:59:45;;;;;;;18.92;6.28;;;2.60;99.90;;;;;;5068302;28;20513;-58
2021/03/19 07:02:33;;;;;;;20.02;6.82;;;2.60;99.90;;;;;;5041298;28;20495;-58
2021/03/19 07:05:22;;;;;;;19.63;8.57;;;2.70;99.90;;;;;;5068239;28;20052;-57
2021/03/19 07:07:58;;;;;;;13.75;5.22;;;2.70;99.90;;;;;;5070639;28;20044;-59
2021/03/19 07:10:45;;;;;;;20.08;8.57;;;2.80;99.90;;;;;;5075160;28;20047;-58
2021/03/19 07:13:54;;;;;;;14.45;6.60;;;2.80;99.90;;;;;;5053606;28;20041;-57
2021/03/19 07:16:27;;;;;;;24.58;8.60;;;2.90;99.90;;;;;;5069997;28;20033;-58
2021/03/19 07:18:54;;;;;;;16.27;6.65;;;2.90;99.90;;;;;;5070299;28;20475;-57
2021/03/19 07:21:58;;;;;;;13.85;4.85;;;2.90;99.90;;;;;;5068189;28;20040;-59
2021/03/19 07:25:02;;;;;;;17.83;6.78;;;3.00;99.90;;;;;;5071118;28;20415;-58
2021/03/19 07:27:35;;;;;;;13.15;5.05;;;3.00;99.90;;;;;;5063009;28;20123;-58
2021/03/19 07:30:20;;;;;;;12.98;4.35;;;3.10;99.90;;;;;;5059154;28;20044;-61
2021/03/19 07:33:05;;;;;;;11.98;5.03;;;3.20;99.90;;;;;;5057006;28;20407;-57
2021/03/19 07:35:53;;;;;;;12.57;5.30;;;3.20;99.90;;;;;;5060932;28;20041;-57
2021/03/19 07:38:54;;;;;;;15.18;5.38;;;3.30;99.90;;;;;;5070550;28;20045;-58
2021/03/19 07:41:39;;;;;;;16.13;4.60;;;3.40;99.90;;;;;;5068184;28;20041;-58
2021/03/19 07:44:24;;;;;;;8.20;4.10;;;3.50;99.90;;;;;;5052520;28;20420;-59
2021/03/19 07:47:16;;;;;;;11.90;5.18;;;3.50;99.90;;;;;;5066572;28;20033;-58
2021/03/19 07:50:17;;;;;;;10.75;5.18;;;3.60;99.90;;;;;;5066967;28;20145;-58
2021/03/19 07:52:44;;;;;;;26.65;9.95;;;3.80;99.90;;;;;;5051294;28;20439;-59
2021/03/19 07:55:44;;;;;;;9.35;3.83;;;3.90;99.90;;;;;;5059188;28;20047;-59
2021/03/19 07:58:42;;;;;;;14.90;6.15;;;4.00;99.40;;;;;;5069276;28;20033;-58
2021/03/19 08:01:24;;;;;;;15.65;6.00;;;4.10;99.60;;;;;;5070524;28;20032;-58
2021/03/19 08:04:23;;;;;;;17.77;6.57;;;4.20;99.50;;;;;;5075731;28;20051;-58
2021/03/19 08:06:55;;;;;;;12.95;5.55;;;4.20;97.10;;;;;;5059996;28;20049;-58
2021/03/19 08:09:42;;;;;;;14.10;5.53;;;4.20;96.60;;;;;;5060571;28;20496;-57
2021/03/19 08:12:17;;;;;;;14.35;5.38;;;4.20;97.30;;;;;;5071986;28;20050;-61
2021/03/19 08:15:05;;;;;;;10.73;4.45;;;4.30;98.20;;;;;;5072116;28;20058;-58
2021/03/19 08:17:36;;;;;;;14.10;4.82;;;4.20;96.50;;;;;;5068545;28;20135;-58
2021/03/19 08:20:13;;;;;;;32.88;10.00;;;4.40;96.70;;;;;;5054740;28;20149;-58
2021/03/19 08:22:49;;;;;;;62.00;17.23;;;4.40;95.10;;;;;;5054790;28;20044;-59
2021/03/19 08:25:21;;;;;;;48.03;16.70;;;4.40;96.00;;;;;;5071757;28;20039;-58
2021/03/19 08:28:03;;;;;;;12.87;5.93;;;4.40;95.60;;;;;;5057235;28;20124;-57
2021/03/19 08:30:41;;;;;;;40.80;14.10;;;4.30;96.30;;;;;;5072802;28;20285;-58
2021/03/19 08:33:37;;;;;;;14.07;6.15;;;4.30;97.70;;;;;;5072321;28;20455;-58
2021/03/19 08:36:30;;;;;;;13.75;6.05;;;4.10;97.00;;;;;;5073323;28;20809;-59
2021/03/19 08:39:12;;;;;;;11.98;5.13;;;4.10;97.00;;;;;;5071038;28;20052;-59
2021/03/19 08:41:45;;;;;;;10.23;4.25;;;4.20;96.40;;;;;;5045382;28;20048;-59
2021/03/19 08:44:15;;;;;;;10.07;5.18;;;4.20;97.40;;;;;;5067194;28;20063;-60
2021/03/19 08:46:51;;;;;;;11.88;5.50;;;4.40;97.20;;;;;;5053705;28;20071;-59
2021/03/19 08:49:24;;;;;;;11.07;4.30;;;4.60;96.70;;;;;;5058959;28;20052;-58
2021/03/19 08:51:53;;;;;;;12.75;6.00;;;4.60;93.70;;;;;;5051205;28;20044;-57
2021/03/19 08:54:32;;;;;;;13.13;5.82;;;4.60;94.00;;;;;;5072652;28;20415;-57
2021/03/19 08:57:03;;;;;;;13.15;5.70;;;4.70;94.00;;;;;;5071457;28;20651;-58
2021/03/19 08:59:33;;;;;;;11.60;4.68;;;4.90;94.10;;;;;;5055032;28;20049;-59
2021/03/19 09:02:25;;;;;;;11.80;5.47;;;5.20;93.60;;;;;;5067773;28;20040;-58
2021/03/19 09:04:58;;;;;;;11.35;4.95;;;5.60;92.10;;;;;;5052916;28;20051;-57
2021/03/19 09:07:28;;;;;;;;;;;5.60;86.80;;;;;;5071987;28;20063;-58
2021/03/19 09:09:57;;;;;;;11.25;4.80;;;5.50;86.50;;;;;;5051671;28;19931;-58
2021/03/19 09:12:25;;;;;;;9.50;4.90;;;5.50;86.70;;;;;;5067676;28;20045;-57
2021/03/19 09:15:14;;;;;;;10.75;4.38;;;5.60;84.00;;;;;;5070760;28;20102;-60
2021/03/19 09:17:44;;;;;;;9.52;4.50;;;5.70;83.60;;;;;;5055526;28;20415;-60
2021/03/19 09:20:36;;;;;;;9.00;4.25;;;5.70;82.40;;;;;;5067411;28;20041;-59
2021/03/19 09:23:12;;;;;;;10.63;4.07;;;5.90;80.10;;;;;;5070465;28;20533;-57
2021/03/19 09:25:42;;;;;;;9.40;3.65;;;5.80;80.90;;;;;;5071530;28;20040;-59
2021/03/19 09:28:24;;;;;;;9.85;3.85;;;6.00;81.70;;;;;;5069099;28;20419;-59
2021/03/19 09:30:59;;;;;;;10.93;4.03;;;6.10;81.50;;;;;;5068261;28;20045;-58
2021/03/19 09:33:47;;;;;;;10.43;4.50;;;6.00;80.50;;;;;;5070570;28;20072;-60
2021/03/19 09:36:58;;;;;;;12.95;5.00;;;5.90;80.40;;;;;;5065006;28;20167;-58
2021/03/19 09:39:47;;;;;;;7.20;3.63;;;5.90;80.60;;;;;;5015855;28;20056;-59
2021/03/19 09:42:22;;;;;;;9.85;4.15;;;6.10;79.80;;;;;;5053186;28;20098;-61
2021/03/19 09:44:50;;;;;;;10.18;4.13;;;6.10;77.90;;;;;;5051329;28;20052;-58
2021/03/19 09:47:19;;;;;;;9.25;4.28;;;6.20;76.80;;;;;;5050466;28;20040;-59
2021/03/19 09:49:48;;;;;;;7.93;3.30;;;6.20;75.50;;;;;;5064786;28;20047;-59
2021/03/19 09:52:20;;;;;;;12.60;4.50;;;6.10;75.60;;;;;;5057485;28;20060;-61
2021/03/19 09:54:48;;;;;;;7.38;3.58;;;6.20;74.40;;;;;;5070137;28;20094;-58
2021/03/19 09:57:21;;;;;;;7.88;4.30;;;6.10;73.20;;;;;;5070577;28;20729;-58
2021/03/19 10:00:19;;;;;;;10.32;4.47;;;6.10;75.00;;;;;;5069931;28;20466;-59
2021/03/19 10:02:46;;;;;;;12.18;3.83;;;6.00;75.40;;;;;;5053656;28;20044;-61
2021/03/19 10:05:16;;;;;;;13.00;5.03;;;5.90;75.50;;;;;;5064523;28;20036;-60
2021/03/19 10:07:47;;;;;;;8.20;4.35;;;5.90;77.20;;;;;;5036666;28;20458;-59
2021/03/19 10:10:24;;;;;;;8.23;4.68;;;5.90;76.80;;;;;;5055796;28;20102;-60
2021/03/19 10:12:51;;;;;;;12.20;5.40;;;6.00;75.10;;;;;;5046955;28;20032;-59
2021/03/19 10:15:27;;;;;;;9.80;4.50;;;6.00;75.20;;;;;;5064598;28;20489;-60
2021/03/19 10:17:58;;;;;;;8.35;3.83;;;6.00;75.90;;;;;;5046675;28;20054;-59
2021/03/19 10:20:33;;;;;;;10.65;4.55;;;6.00;76.20;;;;;;5067207;28;20036;-62
2021/03/19 10:23:11;;;;;;;6.53;4.25;;;6.10;75.80;;;;;;5064710;28;20119;-60
2021/03/19 10:25:43;;;;;;;9.07;3.85;;;6.20;75.70;;;;;;5066464;28;20727;-62
2021/03/19 10:28:12;;;;;;;8.60;4.30;;;6.40;75.80;;;;;;5063412;28;20149;-60
2021/03/19 10:31:01;;;;;;;8.20;3.72;;;6.60;75.00;;;;;;5063963;28;20044;-62
2021/03/19 10:33:59;;;;;;;7.47;3.70;;;6.80;73.70;;;;;;5066297;28;20040;-61
2021/03/19 10:36:42;;;;;;;7.63;3.47;;;7.20;71.50;;;;;;5059088;28;20040;-60
2021/03/19 10:39:34;;;;;;;5.97;3.38;;;7.50;69.80;;;;;;5064084;28;20049;-61
2021/03/19 10:42:24;;;;;;;8.05;3.60;;;7.80;67.50;;;;;;5031381;28;20080;-62
2021/03/19 10:45:07;;;;;;;7.82;3.67;;;8.20;67.10;;;;;;5061459;28;20047;-59
2021/03/19 10:47:43;;;;;;;6.28;3.30;;;8.30;61.90;;;;;;5062118;28;20036;-59
2021/03/19 10:50:29;;;;;;;7.57;3.53;;;8.40;62.80;;;;;;5047121;28;20563;-58
2021/03/19 10:53:03;;;;;;;5.93;3.05;;;8.50;62.90;;;;;;5063722;28;20044;-65
2021/03/19 10:55:33;;;;;;;9.05;3.42;;;8.50;64.00;;;;;;5038117;28;20526;-60
2021/03/19 10:58:30;;;;;;;7.50;3.33;;;8.50;62.00;;;;;;5064995;28;20036;-59
2021/03/19 11:00:57;;;;;;;7.03;3.88;;;8.40;60.40;;;;;;5032254;28;20527;-59
2021/03/19 11:03:33;;;;;;;7.65;3.58;;;8.10;62.10;;;;;;5043391;28;20136;-62
2021/03/19 11:06:26;;;;;;;7.05;3.30;;;8.00;62.70;;;;;;5045109;28;20872;-57
2021/03/19 11:09:29;;;;;;;12.10;4.72;;;7.50;65.40;;;;;;5039993;28;20052;-62
2021/03/19 11:12:18;;;;;;;10.73;3.65;;;6.90;72.70;;;;;;5056582;28;20136;-61
2021/03/19 11:14:59;;;;;;;7.93;3.97;;;6.40;77.30;;;;;;5066079;28;20044;-60
2021/03/19 11:17:26;;;;;;;8.63;4.05;;;6.00;79.30;;;;;;5065377;28;20526;-61
2021/03/19 11:19:58;;;;;;;11.93;4.53;;;5.90;80.70;;;;;;5043838;28;20040;-61
2021/03/19 11:22:33;;;;;;;8.70;3.70;;;5.90;85.00;;;;;;5062761;28;20055;-63
2021/03/19 11:25:34;;;;;;;10.52;4.57;;;6.00;87.30;;;;;;5037299;28;20883;-60
2021/03/19 11:28:01;;;;;;;12.40;4.70;;;6.00;89.20;;;;;;5035348;28;20056;-62
2021/03/19 11:30:36;;;;;;;9.90;4.40;;;5.80;91.80;;;;;;5064198;28;20442;-61
2021/03/19 11:33:14;;;;;;;10.43;4.13;;;5.70;93.60;;;;;;5041951;28;20458;-64
2021/03/19 11:36:25;;;;;;;11.43;4.15;;;5.60;94.30;;;;;;5051768;28;20037;-62
2021/03/19 11:38:53;;;;;;;12.30;5.18;;;5.40;96.70;;;;;;5049162;28;20049;-66
2021/03/19 11:41:40;;;;;;;10.27;4.18;;;5.30;96.90;;;;;;5050117;28;20036;-61
2021/03/19 11:44:12;;;;;;;12.20;4.47;;;5.20;96.80;;;;;;5059176;28;20407;-61
2021/03/19 11:46:38;;;;;;;12.20;4.70;;;5.20;97.70;;;;;;5051457;28;20047;-62
2021/03/19 11:49:05;;;;;;;12.57;4.63;;;5.20;97.70;;;;;;5015170;28;20048;-61
2021/03/19 11:51:43;;;;;;;12.88;4.60;;;5.10;97.90;;;;;;5029056;28;20558;-60
2021/03/19 11:54:10;;;;;;;10.55;3.83;;;5.00;98.60;;;;;;5051219;28;20048;-61
2021/03/19 11:56:38;;;;;;;8.50;3.60;;;5.10;98.80;;;;;;5055795;28;20045;-59
2021/03/19 11:59:14;;;;;;;5.80;2.72;;;5.10;99.90;;;;;;5047551;28;20041;-60
2021/03/19 12:01:42;;;;;;;7.63;3.50;;;5.20;99.90;;;;;;5057538;28;20045;-62
2021/03/19 12:04:17;;;;;;;7.35;3.63;;;5.50;99.90;;;;;;5035749;28;20045;-63
2021/03/19 12:06:44;;;;;;;9.32;3.60;;;6.00;99.90;;;;;;5031338;28;20148;-64
2021/03/19 12:09:11;;;;;;;6.32;2.85;;;6.40;99.90;;;;;;5042115;28;20040;-62
2021/03/19 12:11:43;;;;;;;6.03;3.03;;;6.90;99.90;;;;;;5044691;28;20119;-61
2021/03/19 12:14:26;;;;;;;8.02;3.60;;;7.40;97.30;;;;;;5048807;28;20041;-61
2021/03/19 12:16:54;;;;;;;7.15;3.58;;;7.70;95.00;;;;;;5024632;28;20057;-61
2021/03/19 12:19:22;;;;;;;6.22;2.78;;;7.80;94.40;;;;;;5038642;28;20048;-61
2021/03/19 12:21:49;;;;;;;7.93;3.50;;;8.00;93.40;;;;;;5028536;28;20454;-61
2021/03/19 12:24:18;;;;;;;8.27;4.07;;;8.40;93.10;;;;;;5050434;28;20164;-60
2021/03/19 12:26:44;;;;;;;7.88;3.67;;;8.90;91.90;;;;;;5025760;28;20037;-62
2021/03/19 12:29:12;;;;;;;7.80;3.72;;;9.30;91.00;;;;;;5048332;28;20068;-60
2021/03/19 12:31:40;;;;;;;7.15;4.07;;;9.90;89.20;;;;;;5052247;28;20045;-60
2021/03/19 12:34:07;;;;;;;7.68;3.25;;;10.40;83.00;;;;;;5055332;28;20055;-66
2021/03/19 12:36:34;;;;;;;7.07;3.55;;;10.90;78.10;;;;;;5043592;28;20051;-61
2021/03/19 12:39:00;;;;;;;6.15;3.20;;;11.40;76.20;;;;;;5048044;28;20041;-61
2021/03/19 12:41:27;;;;;;;6.38;3.28;;;11.90;73.10;;;;;;5049355;28;20045;-62
2021/03/19 12:43:54;;;;;;;7.63;3.45;;;12.40;69.90;;;;;;5020493;28;20053;-63
2021/03/19 12:46:22;;;;;;;6.22;3.10;;;13.00;71.00;;;;;;5060991;28;20084;-63
2021/03/19 12:48:49;;;;;;;6.68;2.85;;;13.40;63.30;;;;;;5039224;28;20064;-65
2021/03/19 12:51:15;;;;;;;4.50;3.08;;;13.70;63.50;;;;;;5067035;28;20066;-62
2021/03/19 12:53:42;;;;;;;7.03;3.17;;;14.10;60.90;;;;;;5050762;28;20155;-65
2021/03/19 12:56:09;;;;;;;5.35;3.10;;;14.60;59.30;;;;;;5037070;28;20055;-62
2021/03/19 12:58:35;;;;;;;6.57;2.95;;;15.00;56.50;;;;;;5048225;28;20037;-63
2021/03/19 13:01:02;;;;;;;5.30;3.35;;;15.00;56.20;;;;;;5020736;28;20048;-62
2021/03/19 13:03:33;;;;;;;6.53;3.67;;;15.40;57.10;;;;;;5062788;28;20098;-62
2021/03/19 13:06:02;;;;;;;6.05;3.30;;;16.00;56.50;;;;;;5042713;28;20045;-62
2021/03/19 13:08:31;;;;;;;6.20;3.03;;;16.30;51.80;;;;;;5068811;28;20406;-63
2021/03/19 13:10:57;;;;;;;5.10;2.78;;;16.50;51.30;;;;;;5066751;28;20562;-63
2021/03/19 13:13:24;;;;;;;4.70;2.70;;;16.80;50.90;;;;;;5066322;28;20055;-63
2021/03/19 13:15:52;;;;;;;6.63;3.15;;;16.80;48.10;;;;;;5072696;28;20727;-65
2021/03/19 13:18:19;;;;;;;6.15;3.28;;;16.80;47.50;;;;;;5066657;28;20127;-62
2021/03/19 13:20:46;;;;;;;5.15;3.28;;;17.00;48.20;;;;;;5046685;28;20106;-62
2021/03/19 13:23:14;;;;;;;5.40;3.05;;;17.40;46.90;;;;;;5048546;28;20044;-62
2021/03/19 13:25:42;;;;;;;5.50;3.08;;;17.50;46.40;;;;;;5065011;28;20056;-61
2021/03/19 13:28:16;;;;;;;5.43;2.85;;;17.40;46.50;;;;;;5066825;28;20090;-60
2021/03/19 13:30:57;;;;;;;5.28;2.85;;;17.40;46.60;;;;;;5065409;28;20605;-59
2021/03/19 13:33:26;;;;;;;4.45;2.75;;;17.20;46.50;;;;;;5050863;28;20052;-64